Flight Track Log - Related Links

Times and Time Zones

All times are in EDT time to prevent confusion due to time zone crossing. See the ASQ4179 flight status page for this flight to view local times or setup timezone preferences in your user account.

Time Position Orientation Groundspeed Altitude Reporting Facility
EDT Latitude Longitude Course Direction KTS MPH feet Rate Location/Type
Tue 12:07:05 PM 40.7333 -74.1167 27° Northeast 189 217 2,500  Level New York TRACON
Tue 12:08:04 PM 40.7833 -74.0667 37° Northeast 253 291 4,000 1,966 Climbing New York TRACON
Tue 12:09:00 PM 40.9579 -73.8588 37° Northeast  Level FlightAware Approximate
Tue 12:09:04 PM 40.8500 -74.0167 30° Northeast 256 295 6,400  Level New York TRACON
Tue 12:09:59 PM 40.8167 -73.9500 123° Southeast 269 310 8,400 2,035 Climbing New York TRACON
Tue 12:10:00 PM 41.0312 -73.7817 40° Northeast  Level FlightAware Approximate
Tue 12:10:59 PM 40.8333 -73.8667 75° East 285 328 10,300  Level New York TRACON
Tue 12:11:00 PM 41.1026 -73.7013 40° Northeast  Level FlightAware Approximate
Tue 12:12:00 PM 41.1810 -73.6349 27° Northeast  Level FlightAware Approximate
Tue 12:12:38 PM 40.9236 -73.7475 45° Northeast 304 350 12,800  Level Boston Center
Tue 12:13:38 PM 41.0119 -73.6806 30° Northeast 325 374 14,600 1,650 Climbing Boston Center
Tue 12:14:38 PM 41.0833 -73.6242 31° Northeast 333 383 16,100 1,409 Climbing Boston Center
Tue 12:15:50 PM 41.1736 -73.5431 34° Northeast 340 391 17,700 1,318 Climbing Boston Center
Tue 12:16:50 PM 41.2600 -73.4617 35° Northeast 351 404 19,000 1,400 Climbing Boston Center
Tue 12:17:50 PM 41.3439 -73.3856 34° Northeast 356 410 20,500 1,500 Climbing Boston Center
Tue 12:18:50 PM 41.4258 -73.3067 36° Northeast 356 410 22,000 1,450 Climbing Boston Center
Tue 12:19:50 PM 41.5097 -73.2272 35° Northeast 356 410 23,400 1,250 Climbing Boston Center
Tue 12:20:50 PM 41.6058 -73.2147 North 337 388 24,500 800 Climbing Boston Center
Tue 12:21:50 PM 41.7081 -73.2103 North 344 396 25,000 250 Climbing Boston Center
Tue 12:22:50 PM 41.8206 -73.2089 North 375 432 25,000  Level Boston Center
Tue 12:23:50 PM 41.9331 -73.2075 North 393 452 25,000  Level Boston Center
Tue 12:24:50 PM 42.0519 -73.2061 360° North 413 475 25,000  Level Boston Center
Tue 12:25:50 PM 42.1706 -73.2047 360° North 418 481 25,000  Level Boston Center
Tue 12:26:50 PM 42.2894 -73.2006 North 423 487 25,000  Level Boston Center
Tue 12:27:50 PM 42.4086 -73.1656 12° North 423 487 25,000  Level Boston Center
Tue 12:28:50 PM 42.5233 -73.1133 19° North 423 487 25,000  Level Boston Center
Tue 12:29:50 PM 42.6508 -73.0725 13° North 428 493 25,000  Level Boston Center
Tue 12:30:50 PM 42.7675 -73.0650 North 428 493 25,000  Level Boston Center
Tue 12:31:50 PM 42.8883 -73.0719 358° North 428 493 25,000 -100 Level Boston Center
Tue 12:32:50 PM 43.0092 -73.0789 358° North 428 493 24,800 -350 Descending Boston Center
Tue 12:33:50 PM 43.1300 -73.0858 358° North 428 493 24,300 -364 Descending Boston Center
Tue 12:35:02 PM 43.2717 -73.0931 358° North 422 486 24,000 -409 Descending Boston Center
Tue 12:36:02 PM 43.3925 -73.1000 358° North 422 486 23,400 -1,200 Descending Boston Center
Tue 12:37:02 PM 43.4947 -73.1011 360° North 416 479 21,600 -1,950 Descending Boston Center
Tue 12:38:02 PM 43.6114 -73.1083 357° North 416 479 19,500 -1,900 Descending Boston Center
Tue 12:39:02 PM 43.7258 -73.1153 357° North 416 479 17,800 -2,000 Descending Boston Center
Tue 12:40:02 PM 43.8489 -73.1225 358° North 405 466 15,500 -2,150 Descending Boston Center
Tue 12:41:02 PM 43.9531 -73.1322 356° North 383 441 13,500 -2,050 Descending Boston Center
Tue 12:42:02 PM 44.0486 -73.1650 346° North 361 415 11,400 -2,050 Descending Boston Center
Tue 12:43:02 PM 44.1275 -73.1922 346° North 312 359 9,400 -1,950 Descending Boston Center
Tue 12:44:02 PM 44.2025 -73.2161 347° North 280 322 7,500 -1,950 Descending Boston Center
Tue 12:45:02 PM 44.2731 -73.2375 348° North 262 302 5,500 -1,850 Descending Boston Center
Tue 12:46:02 PM 44.3397 -73.2586 347° North 252 290 3,800 -1,250 Descending Boston Center
Tue 12:47:02 PM 44.4103 -73.2800 348° North 252 290 3,000 -750 Descending Boston Center
Tue 12:48:02 PM 44.4708 -73.2808 359° North 237 273 2,300 -700 Descending Boston Center

Login

Don't have an account? Register now (free) for customized features, flight alerts, and more!